New Providence, Pennsylvania
Current Conditions -  °F | °C
As of 6:53 PM on Friday 28 Nov 2014 (Local Time) from KLNS Reporting Station
Clear Clear  
Wind Chill: 29°   Ceiling: Unl
Heat Index: 29°   Visibility: 10mi
Dew Point: 15°   Wind: 0mph
Humidity: 56%   Direction: NA
Pressure: 30.25"   Gusts: NA
Location:  39.93°N, 76.2°W
Report Text: KLNS 282353Z 00000KT 10SM CLR M02/M09 A3025 RMK AO2 SLP250 T10171094 10011 21028 51006
Loading
Personal Weather Stations






























Interactive Weather Map New forecast layout! Learn more

10-Day Weather Forecast

Advertisements
Track Severe Weather on mobile